| time (UTC) | temp F | wind direction | speed MPH | gust MPH | rain 1hr in | rain 24hr in | rain mn in | humidity % | barometer mb |
| 20260507081326 | 55 | 72 | 0.0 | 3.0 | 0.00 | 0.40 | 0.28 | 88 | 1003.5 |
| 20260507080820 | 55 | 117 | 1.0 | 6.0 | 0.00 | 0.40 | 0.28 | 88 | 1003.2 |
| 20260507080536 | 55 | 117 | 1.0 | 6.0 | 0.00 | 0.40 | 0.28 | 88 | 1003.3 |
| 20260507075808 | 55 | 61 | 1.0 | 6.0 | 0.00 | 0.40 | 0.28 | 88 | 1003.4 |
| 20260507075301 | 55 | 245 | 1.0 | 5.0 | 0.00 | 0.40 | 0.28 | 88 | 1003.3 |
| 20260507074756 | 56 | 131 | 1.0 | 4.0 | 0.00 | 0.40 | 0.28 | 87 | 1003.3 |
| 20260507074250 | 56 | 91 | 1.0 | 4.0 | 0.00 | 0.40 | 0.28 | 87 | 1003.0 |
| 20260507074008 | 56 | 70 | 1.0 | 4.0 | 0.00 | 0.40 | 0.28 | 87 | 1002.9 |
| 20260507073238 | 56 | 74 | 0.0 | 4.0 | 0.00 | 0.40 | 0.28 | 87 | 1002.9 |
| 20260507072732 | 56 | 53 | 0.0 | 3.0 | 0.00 | 0.40 | 0.28 | 87 | 1003.0 |
| 20260507072226 | 56 | 96 | 0.0 | 1.0 | 0.00 | 0.40 | 0.28 | 87 | 1002.9 |
| 20260507071721 | 56 | 289 | 0.0 | 3.0 | 0.00 | 0.40 | 0.28 | 87 | 1002.9 |
| 20260507071214 | 56 | 287 | 0.0 | 3.0 | 0.00 | 0.40 | 0.28 | 87 | 1002.7 |
| 20260507070708 | 56 | 181 | 0.0 | 2.0 | 0.00 | 0.40 | 0.28 | 87 | 1002.7 |
| 20260507070202 | 56 | 122 | 0.0 | 2.0 | 0.01 | 0.40 | 0.28 | 87 | 1002.8 |
| 20260507065150 | 56 | 351 | 0.0 | 5.0 | 0.01 | 0.40 | 0.28 | 87 | 1002.9 |
| 20260507064909 | 56 | 93 | 0.0 | 3.0 | 0.01 | 0.40 | 0.28 | 87 | 1002.8 |
| 20260507064138 | 57 | 150 | 1.0 | 6.0 | 0.01 | 0.40 | 0.28 | 87 | 1002.6 |
| 20260507063127 | 57 | 310 | 2.0 | 6.0 | 0.02 | 0.40 | 0.28 | 87 | 1002.4 |
| 20260507062845 | 57 | 72 | 1.0 | 6.0 | 0.04 | 0.40 | 0.28 | 87 | 1002.2 |
| 20260507062114 | 57 | 91 | 1.0 | 4.0 | 0.06 | 0.40 | 0.28 | 88 | 1002.2 |
| 20260507061608 | 58 | 48 | 1.0 | 4.0 | 0.07 | 0.40 | 0.28 | 87 | 1002.3 |
| 20260507061102 | 58 | 81 | 1.0 | 3.0 | 0.11 | 0.40 | 0.28 | 87 | 1002.5 |
| 20260507060820 | 58 | 63 | 1.0 | 3.0 | 0.12 | 0.39 | 0.28 | 87 | 1002.4 |
| 20260507060050 | 58 | 89 | 0.0 | 1.0 | 0.13 | 0.39 | 0.27 | 87 | 1002.6 |
| 20260507055544 | 58 | 89 | 0.0 | 3.0 | 0.16 | 0.39 | 0.27 | 87 | 1002.7 |
| 20260507055305 | 59 | 100 | 0.0 | 3.0 | 0.17 | 0.39 | 0.27 | 87 | 1003.0 |
| 20260507054533 | 59 | 105 | 0.0 | 3.0 | 0.17 | 0.39 | 0.27 | 87 | 1002.7 |
| 20260507054244 | 59 | 105 | 0.0 | 3.0 | 0.21 | 0.39 | 0.27 | 87 | 1002.5 |
| 20260507053520 | 59 | 123 | 0.0 | 2.0 | 0.27 | 0.39 | 0.27 | 87 | 1002.4 |
| 20260507053014 | 60 | 120 | 0.0 | 3.0 | 0.26 | 0.38 | 0.26 | 87 | 1002.6 |
| 20260507052508 | 60 | 58 | 0.0 | 3.0 | 0.24 | 0.36 | 0.24 | 87 | 1002.7 |
| 20260507052003 | 60 | 187 | 1.0 | 2.0 | 0.22 | 0.34 | 0.22 | 87 | 1002.7 |
| 20260507051456 | 60 | 64 | 1.0 | 2.0 | 0.19 | 0.31 | 0.20 | 87 | 1002.6 |
| 20260507050950 | 60 | 141 | 0.0 | 2.0 | 0.17 | 0.29 | 0.17 | 87 | 1003.2 |
| 20260507050444 | 60 | 228 | 0.0 | 2.0 | 0.15 | 0.27 | 0.15 | 87 | 1003.0 |
| 20260507045937 | 61 | 103 | 0.0 | 1.0 | 0.13 | 0.25 | 0.13 | 87 | 1002.3 |
| 20260507045432 | 61 | 103 | 0.0 | 0.0 | 0.11 | 0.23 | 0.11 | 86 | 1002.9 |
| 20260507044926 | 62 | 103 | 0.0 | 2.0 | 0.10 | 0.22 | 0.10 | 86 | 1002.8 |
| 20260507044421 | 62 | 103 | 0.0 | 2.0 | 0.10 | 0.22 | 0.10 | 85 | 1003.1 |
| 20260507043914 | 62 | 101 | 0.0 | 4.0 | 0.03 | 0.15 | 0.03 | 84 | 1003.1 |
| 20260507043639 | 62 | 70 | 1.0 | 4.0 | 0.00 | 0.12 | 0.00 | 84 | 1003.0 |
| 20260507042903 | 62 | 296 | 1.0 | 3.0 | 0.00 | 0.12 | 0.00 | 84 | 1002.8 |
| 20260507042356 | 62 | 175 | 0.0 | 3.0 | 0.00 | 0.12 | 0.00 | 84 | 1003.0 |
| 20260507041850 | 62 | 96 | 0.0 | 3.0 | 0.00 | 0.12 | 0.00 | 84 | 1002.7 |
| 20260507041348 | 62 | 15 | 0.0 | 3.0 | 0.00 | 0.12 | 0.00 | 84 | 1002.4 |
| 20260507040848 | 62 | 271 | 0.0 | 3.0 | 0.00 | 0.12 | 0.00 | 85 | 1002.3 |
| 20260507040347 | 62 | 142 | 0.0 | 3.0 | 0.00 | 0.12 | 0.00 | 85 | 1002.3 |
| 20260507035848 | 63 | 279 | 1.0 | 4.0 | 0.00 | 0.12 | 0.12 | 86 | 1002.3 |
| 20260507035345 | 63 | 40 | 1.0 | 6.0 | 0.00 | 0.12 | 0.12 | 87 | 1002.3 |
| 20260507034845 | 64 | 61 | 2.0 | 6.0 | 0.00 | 0.12 | 0.12 | 87 | 1002.4 |
| 20260507034343 | 64 | 98 | 1.0 | 5.0 | 0.00 | 0.12 | 0.12 | 87 | 1002.3 |
| 20260507033844 | 64 | 281 | 0.0 | 3.0 | 0.00 | 0.12 | 0.12 | 87 | 1002.2 |
| 20260507033344 | 64 | 195 | 0.0 | 0.0 | 0.00 | 0.12 | 0.12 | 87 | 1002.1 |
| 20260507032841 | 64 | 195 | 0.0 | 0.0 | 0.00 | 0.12 | 0.12 | 87 | 1002.1 |
| 20260507032339 | 64 | 195 | 0.0 | 2.0 | 0.00 | 0.12 | 0.12 | 87 | 1001.9 |
| 20260507031841 | 64 | 195 | 0.0 | 2.0 | 0.00 | 0.12 | 0.12 | 87 | 1001.8 |
| 20260507031336 | 65 | 75 | 0.0 | 1.0 | 0.00 | 0.12 | 0.12 | 87 | 1002.0 |
| 20260507030835 | 65 | 75 | 0.0 | 1.0 | 0.00 | 0.12 | 0.12 | 87 | 1002.1 |
| 20260507030334 | 64 | 75 | 0.0 | 2.0 | 0.00 | 0.12 | 0.12 | 86 | 1002.1 |
| 20260507025834 | 64 | 75 | 0.0 | 2.0 | 0.00 | 0.12 | 0.12 | 86 | 1002.0 |
| 20260507025327 | 64 | 228 | 0.0 | 1.0 | 0.00 | 0.12 | 0.12 | 87 | 1001.8 |
| 20260507024825 | 64 | 216 | 0.0 | 0.0 | 0.00 | 0.12 | 0.12 | 87 | 1001.7 |
| 20260507024324 | 64 | 216 | 0.0 | 0.0 | 0.00 | 0.12 | 0.12 | 87 | 1001.6 |
| 20260507023821 | 64 | 216 | 0.0 | 0.0 | 0.00 | 0.12 | 0.12 | 87 | 1001.3 |
| 20260507023551 | 64 | 216 | 0.0 | 0.0 | 0.00 | 0.12 | 0.12 | 87 | 1001.5 |
| 20260507022821 | 64 | 216 | 0.0 | 0.0 | 0.00 | 0.12 | 0.12 | 87 | 1001.5 |
| 20260507022319 | 64 | 216 | 0.0 | 0.0 | 0.00 | 0.12 | 0.12 | 87 | 1001.4 |
| 20260507021819 | 64 | 216 | 0.0 | 0.0 | 0.00 | 0.12 | 0.12 | 87 | 1001.3 |
| 20260507021316 | 64 | 216 | 0.0 | 0.0 | 0.00 | 0.12 | 0.12 | 87 | 1001.5 |
| 20260507020814 | 64 | 216 | 0.0 | 0.0 | 0.00 | 0.12 | 0.12 | 87 | 1001.4 |
| 20260507020311 | 64 | 216 | 0.0 | 0.0 | 0.00 | 0.12 | 0.12 | 87 | 1001.6 |
| 20260507015809 | 64 | 216 | 0.0 | 0.0 | 0.00 | 0.12 | 0.12 | 87 | 1001.5 |
| 20260507015307 | 64 | 216 | 0.0 | 0.0 | 0.00 | 0.12 | 0.12 | 87 | 1001.4 |
| 20260507014806 | 64 | 216 | 0.0 | 0.0 | 0.00 | 0.12 | 0.12 | 87 | 1001.4 |
| 20260507014305 | 64 | 216 | 0.0 | 0.0 | 0.00 | 0.12 | 0.12 | 87 | 1001.5 |
| 20260507014025 | 64 | 216 | 0.0 | 0.0 | 0.00 | 0.12 | 0.12 | 87 | 1001.6 |
| 20260507013304 | 64 | 216 | 0.0 | 0.0 | 0.00 | 0.12 | 0.12 | 87 | 1001.8 |
| 20260507012801 | 64 | 216 | 0.0 | 0.0 | 0.00 | 0.12 | 0.12 | 87 | 1002.1 |
| 20260507012259 | 64 | 216 | 0.0 | 0.0 | 0.00 | 0.12 | 0.12 | 87 | 1002.1 |
| 20260507011757 | 64 | 216 | 0.0 | 0.0 | 0.00 | 0.12 | 0.12 | 87 | 1002.1 |
| 20260507011259 | 64 | 216 | 0.0 | 0.0 | 0.00 | 0.12 | 0.12 | 87 | 1002.1 |
| 20260507010248 | 64 | 216 | 0.0 | 0.0 | 0.00 | 0.12 | 0.12 | 87 | 1001.9 |
| 20260507005741 | 64 | 216 | 0.0 | 0.0 | 0.00 | 0.12 | 0.12 | 87 | 1001.8 |
| 20260507005237 | 65 | 216 | 0.0 | 0.0 | 0.00 | 0.12 | 0.12 | 86 | 1001.6 |
| 20260507004950 | 65 | 216 | 0.0 | 0.0 | 0.00 | 0.12 | 0.12 | 86 | 1001.6 |
| 20260507004223 | 65 | 216 | 0.0 | 0.0 | 0.00 | 0.12 | 0.12 | 86 | 1001.5 |
| 20260507003717 | 65 | 216 | 0.0 | 0.0 | 0.00 | 0.12 | 0.12 | 86 | 1001.7 |
| 20260507003211 | 65 | 216 | 0.0 | 0.0 | 0.00 | 0.12 | 0.12 | 85 | 1001.5 |
| 20260507002708 | 66 | 216 | 0.0 | 0.0 | 0.00 | 0.12 | 0.12 | 85 | 1001.4 |
| 20260507002159 | 66 | 216 | 0.0 | 0.0 | 0.00 | 0.12 | 0.12 | 85 | 1001.4 |
| 20260507001653 | 66 | 216 | 0.0 | 0.0 | 0.00 | 0.12 | 0.12 | 84 | 1001.5 |
| 20260507001148 | 66 | 216 | 0.0 | 0.0 | 0.00 | 0.12 | 0.12 | 84 | 1001.6 |
| 20260507000641 | 67 | 216 | 0.0 | 0.0 | 0.00 | 0.12 | 0.12 | 84 | 1001.6 |
| 20260507000137 | 67 | 216 | 0.0 | 0.0 | 0.00 | 0.12 | 0.12 | 84 | 1001.4 |
| 20260506235629 | 67 | 216 | 0.0 | 0.0 | 0.00 | 0.12 | 0.12 | 83 | 1001.5 |
| 20260506235123 | 67 | 216 | 0.0 | 0.0 | 0.00 | 0.12 | 0.12 | 83 | 1001.3 |
| 20260506234617 | 67 | 216 | 0.0 | 0.0 | 0.00 | 0.12 | 0.12 | 83 | 1001.3 |
| 20260506234110 | 68 | 216 | 0.0 | 0.0 | 0.00 | 0.12 | 0.12 | 82 | 1001.2 |
| 20260506233607 | 68 | 216 | 0.0 | 1.0 | 0.00 | 0.12 | 0.12 | 82 | 1001.2 |
| 20260506233059 | 68 | 216 | 0.0 | 1.0 | 0.00 | 0.12 | 0.12 | 82 | 1001.1 |
| 20260506232047 | 69 | 168 | 0.0 | 3.0 | 0.00 | 0.12 | 0.12 | 81 | 1000.9 |
| 20260506231037 | 69 | 166 | 1.0 | 3.0 | 0.00 | 0.12 | 0.12 | 80 | 1000.9 |
| 20260506230530 | 69 | 176 | 1.0 | 6.0 | 0.00 | 0.12 | 0.12 | 80 | 1001.0 |
| 20260506230023 | 69 | 184 | 1.0 | 6.0 | 0.00 | 0.12 | 0.12 | 80 | 1001.0 |
| 20260506225518 | 69 | 235 | 1.0 | 5.0 | 0.00 | 0.12 | 0.12 | 79 | 1001.1 |
| 20260506225011 | 69 | 242 | 1.0 | 5.0 | 0.00 | 0.12 | 0.12 | 79 | 1000.9 |
| 20260506224507 | 69 | 213 | 1.0 | 5.0 | 0.00 | 0.12 | 0.12 | 79 | 1000.8 |
| 20260506223959 | 70 | 214 | 1.0 | 4.0 | 0.00 | 0.12 | 0.12 | 79 | 1000.8 |
| 20260506223453 | 70 | 186 | 1.0 | 5.0 | 0.00 | 0.12 | 0.12 | 79 | 1000.9 |
| 20260506222947 | 70 | 204 | 1.0 | 5.0 | 0.00 | 0.12 | 0.12 | 78 | 1000.9 |
| 20260506222706 | 70 | 207 | 2.0 | 10.0 | 0.00 | 0.12 | 0.12 | 78 | 1000.9 |
| 20260506221937 | 70 | 200 | 2.0 | 10.0 | 0.00 | 0.12 | 0.12 | 77 | 1000.9 |
| 20260506221430 | 70 | 204 | 3.0 | 8.0 | 0.00 | 0.12 | 0.12 | 77 | 1001.0 |
| 20260506221147 | 71 | 195 | 3.0 | 8.0 | 0.00 | 0.12 | 0.12 | 77 | 1001.0 |
| 20260506220417 | 71 | 205 | 2.0 | 6.0 | 0.00 | 0.12 | 0.12 | 76 | 1000.8 |
| 20260506215911 | 71 | 205 | 1.0 | 5.0 | 0.00 | 0.12 | 0.12 | 76 | 1000.9 |
| 20260506215406 | 71 | 174 | 1.0 | 6.0 | 0.00 | 0.12 | 0.12 | 77 | 1001.0 |
| 20260506214859 | 71 | 202 | 2.0 | 7.0 | 0.00 | 0.12 | 0.12 | 77 | 1001.1 |
| 20260506214353 | 71 | 212 | 2.0 | 7.0 | 0.00 | 0.12 | 0.12 | 76 | 1001.0 |
| 20260506213847 | 71 | 279 | 2.0 | 6.0 | 0.00 | 0.12 | 0.12 | 76 | 1000.9 |
| 20260506213341 | 71 | 242 | 3.0 | 8.0 | 0.00 | 0.12 | 0.12 | 75 | 1000.8 |
| 20260506212836 | 71 | 283 | 2.0 | 8.0 | 0.00 | 0.12 | 0.12 | 75 | 1000.7 |
| 20260506212329 | 71 | 269 | 2.0 | 8.0 | 0.00 | 0.12 | 0.12 | 77 | 1000.7 |
| 20260506211823 | 71 | 160 | 2.0 | 8.0 | 0.00 | 0.12 | 0.12 | 76 | 1000.6 |
| 20260506211317 | 71 | 236 | 2.0 | 7.0 | 0.00 | 0.12 | 0.12 | 77 | 1000.6 |
| 20260506210812 | 71 | 56 | 3.0 | 8.0 | 0.00 | 0.12 | 0.12 | 77 | 1000.5 |
| 20260506210307 | 70 | 222 | 4.0 | 11.0 | 0.00 | 0.12 | 0.12 | 77 | 1000.4 |
| 20260506205759 | 71 | 213 | 3.0 | 11.0 | 0.00 | 0.12 | 0.12 | 77 | 1000.4 |
| 20260506205253 | 71 | 193 | 2.0 | 10.0 | 0.00 | 0.12 | 0.12 | 78 | 1000.4 |
| 20260506204747 | 71 | 209 | 2.0 | 10.0 | 0.00 | 0.12 | 0.12 | 78 | 1000.4 |
| 20260506204242 | 70 | 198 | 2.0 | 7.0 | 0.00 | 0.12 | 0.12 | 79 | 1000.3 |
| 20260506203737 | 70 | 217 | 2.0 | 6.0 | 0.00 | 0.12 | 0.12 | 79 | 1000.4 |
| 20260506203229 | 70 | 221 | 3.0 | 7.0 | 0.00 | 0.12 | 0.12 | 80 | 1000.4 |
| 20260506202723 | 70 | 193 | 3.0 | 8.0 | 0.00 | 0.12 | 0.12 | 79 | 1000.4 |
| 20260506202217 | 70 | 227 | 3.0 | 8.0 | 0.00 | 0.12 | 0.12 | 79 | 1000.4 |
| 20260506201711 | 70 | 242 | 3.0 | 9.0 | 0.00 | 0.12 | 0.12 | 79 | 1000.5 |
| 20260506201434 | 70 | 215 | 3.0 | 11.0 | 0.00 | 0.12 | 0.12 | 78 | 1000.5 |
| 20260506200659 | 70 | 216 | 2.0 | 11.0 | 0.00 | 0.12 | 0.12 | 78 | 1000.5 |
| 20260506200153 | 70 | 258 | 2.0 | 8.0 | 0.00 | 0.12 | 0.12 | 78 | 1000.4 |
| 20260506195648 | 70 | 198 | 2.0 | 6.0 | 0.00 | 0.12 | 0.12 | 79 | 1000.4 |
| 20260506195141 | 71 | 224 | 2.0 | 6.0 | 0.00 | 0.12 | 0.12 | 77 | 1000.5 |
| 20260506194637 | 71 | 153 | 1.0 | 5.0 | 0.00 | 0.12 | 0.12 | 79 | 1000.4 |
| 20260506194130 | 71 | 285 | 2.0 | 8.0 | 0.00 | 0.12 | 0.12 | 78 | 1000.4 |
| 20260506193623 | 70 | 220 | 2.0 | 8.0 | 0.00 | 0.12 | 0.12 | 79 | 1000.6 |
| 20260506193118 | 70 | 282 | 1.0 | 6.0 | 0.00 | 0.12 | 0.12 | 80 | 1000.6 |
| 20260506192612 | 69 | 225 | 2.0 | 11.0 | 0.00 | 0.12 | 0.12 | 80 | 1000.6 |
| 20260506192335 | 69 | 108 | 2.0 | 11.0 | 0.00 | 0.12 | 0.12 | 79 | 1000.8 |
| 20260506191822 | 69 | 213 | 2.0 | 10.0 | 0.00 | 0.12 | 0.12 | 79 | 1000.8 |
| 20260506191054 | 69 | 262 | 1.0 | 5.0 | 0.00 | 0.12 | 0.12 | 79 | 1000.9 |
| 20260506190547 | 69 | 238 | 2.0 | 9.0 | 0.00 | 0.12 | 0.12 | 80 | 1000.9 |
| 20260506190040 | 69 | 224 | 3.0 | 9.0 | 0.00 | 0.12 | 0.12 | 79 | 1001.0 |
| 20260506185533 | 69 | 190 | 2.0 | 8.0 | 0.00 | 0.12 | 0.12 | 78 | 1001.1 |
| 20260506185028 | 69 | 281 | 3.0 | 7.0 | 0.00 | 0.12 | 0.12 | 79 | 1001.0 |
| 20260506184521 | 69 | 143 | 2.0 | 10.0 | 0.00 | 0.12 | 0.12 | 79 | 1001.0 |
| 20260506184017 | 69 | 202 | 3.0 | 10.0 | 0.00 | 0.12 | 0.12 | 78 | 1001.1 |
| 20260506183728 | 69 | 241 | 2.0 | 8.0 | 0.00 | 0.12 | 0.12 | 78 | 1001.3 |
| 20260506183005 | 69 | 119 | 2.0 | 6.0 | 0.00 | 0.12 | 0.12 | 80 | 1001.3 |
| 20260506182457 | 69 | 251 | 1.0 | 7.0 | 0.00 | 0.12 | 0.12 | 79 | 1001.2 |
| 20260506181951 | 69 | 240 | 2.0 | 14.0 | 0.00 | 0.12 | 0.12 | 80 | 1001.4 |
| 20260506181708 | 69 | 153 | 3.0 | 14.0 | 0.01 | 0.12 | 0.12 | 80 | 1001.6 |
| 20260506180939 | 69 | 266 | 3.0 | 12.0 | 0.01 | 0.12 | 0.12 | 80 | 1001.5 |
| 20260506180437 | 68 | 146 | 3.0 | 8.0 | 0.01 | 0.12 | 0.12 | 81 | 1001.6 |
| 20260506175938 | 68 | 243 | 3.0 | 9.0 | 0.01 | 0.12 | 0.12 | 82 | 1001.7 |
| 20260506175438 | 67 | 136 | 3.0 | 9.0 | 0.01 | 0.12 | 0.12 | 82 | 1001.7 |
| 20260506174935 | 67 | 96 | 2.0 | 7.0 | 0.01 | 0.12 | 0.12 | 84 | 1001.7 |
| 20260506174656 | 67 | 255 | 3.0 | 9.0 | 0.01 | 0.12 | 0.12 | 83 | 1001.9 |
| 20260506173935 | 67 | 217 | 3.0 | 9.0 | 0.01 | 0.12 | 0.12 | 84 | 1001.5 |
| 20260506173706 | 66 | 274 | 3.0 | 13.0 | 0.01 | 0.12 | 0.12 | 84 | 1001.6 |
| 20260506172935 | 66 | 198 | 3.0 | 13.0 | 0.01 | 0.12 | 0.12 | 84 | 1001.7 |
| 20260506172434 | 66 | 211 | 4.0 | 13.0 | 0.01 | 0.12 | 0.12 | 84 | 1001.9 |
| 20260506171934 | 66 | 205 | 4.0 | 14.0 | 0.01 | 0.12 | 0.12 | 84 | 1001.9 |
| 20260506171434 | 66 | 223 | 4.0 | 14.0 | 0.00 | 0.11 | 0.11 | 85 | 1001.9 |
| 20260506170934 | 66 | 236 | 2.0 | 12.0 | 0.00 | 0.11 | 0.11 | 86 | 1002.0 |
| 20260506170434 | 66 | 167 | 2.0 | 10.0 | 0.00 | 0.11 | 0.11 | 86 | 1001.8 |
| 20260506165934 | 65 | 215 | 2.0 | 7.0 | 0.00 | 0.11 | 0.11 | 87 | 1001.9 |
| 20260506165434 | 65 | 218 | 2.0 | 7.0 | 0.00 | 0.11 | 0.11 | 87 | 1001.9 |
| 20260506164934 | 65 | 227 | 2.0 | 10.0 | 0.00 | 0.11 | 0.11 | 87 | 1001.9 |
| 20260506164434 | 64 | 92 | 2.0 | 10.0 | 0.00 | 0.11 | 0.11 | 87 | 1002.0 |
| 20260506163931 | 65 | 217 | 1.0 | 7.0 | 0.00 | 0.11 | 0.11 | 87 | 1002.0 |
| 20260506163430 | 64 | 269 | 2.0 | 10.0 | 0.01 | 0.11 | 0.11 | 87 | 1001.9 |
| 20260506162930 | 64 | 188 | 2.0 | 10.0 | 0.01 | 0.11 | 0.11 | 87 | 1002.0 |
| 20260506162433 | 64 | 223 | 3.0 | 10.0 | 0.01 | 0.11 | 0.11 | 87 | 1002.1 |
| 20260506161931 | 64 | 209 | 2.0 | 7.0 | 0.01 | 0.11 | 0.11 | 87 | 1002.0 |
| 20260506161432 | 64 | 126 | 2.0 | 9.0 | 0.02 | 0.11 | 0.11 | 87 | 1001.9 |
| 20260506160931 | 63 | 148 | 2.0 | 9.0 | 0.02 | 0.11 | 0.11 | 87 | 1002.3 |
| 20260506160430 | 63 | 245 | 1.0 | 6.0 | 0.02 | 0.11 | 0.11 | 87 | 1002.4 |
| 20260506155930 | 63 | 206 | 1.0 | 6.0 | 0.02 | 0.11 | 0.11 | 87 | 1002.4 |
| 20260506155428 | 63 | 223 | 1.0 | 7.0 | 0.03 | 0.11 | 0.11 | 87 | 1002.4 |
| 20260506154929 | 63 | 124 | 2.0 | 7.0 | 0.03 | 0.11 | 0.11 | 87 | 1002.4 |
| 20260506154429 | 63 | 168 | 1.0 | 5.0 | 0.04 | 0.11 | 0.11 | 87 | 1002.2 |
| 20260506153929 | 62 | 211 | 1.0 | 3.0 | 0.06 | 0.11 | 0.11 | 87 | 1002.1 |
| 20260506153644 | 62 | 212 | 1.0 | 6.0 | 0.06 | 0.10 | 0.10 | 87 | 1002.3 |
| 20260506152921 | 62 | 225 | 1.0 | 6.0 | 0.07 | 0.10 | 0.10 | 87 | 1002.5 |
| 20260506152420 | 63 | 231 | 1.0 | 5.0 | 0.08 | 0.10 | 0.10 | 87 | 1002.9 |
| 20260506151921 | 63 | 127 | 1.0 | 6.0 | 0.09 | 0.10 | 0.10 | 87 | 1003.1 |
| 20260506151421 | 63 | 235 | 1.0 | 6.0 | 0.08 | 0.09 | 0.09 | 87 | 1003.2 |
| 20260506150920 | 62 | 212 | 0.0 | 5.0 | 0.08 | 0.09 | 0.09 | 87 | 1003.2 |
| 20260506150420 | 62 | 217 | 0.0 | 2.0 | 0.08 | 0.09 | 0.09 | 87 | 1003.1 |
| 20260506145921 | 62 | 205 | 0.0 | 2.0 | 0.08 | 0.09 | 0.09 | 87 | 1003.1 |
| 20260506145420 | 62 | 150 | 0.0 | 2.0 | 0.08 | 0.08 | 0.08 | 87 | 1003.0 |
| 20260506144921 | 62 | 238 | 0.0 | 2.0 | 0.08 | 0.08 | 0.08 | 87 | 1003.2 |
| 20260506144417 | 62 | 264 | 0.0 | 2.0 | 0.07 | 0.07 | 0.07 | 87 | 1003.2 |
| 20260506144146 | 62 | 159 | 0.0 | 3.0 | 0.05 | 0.05 | 0.06 | 86 | 1003.1 |
| 20260506143416 | 62 | 205 | 1.0 | 6.0 | 0.04 | 0.04 | 0.04 | 86 | 1003.1 |
| 20260506142917 | 62 | 236 | 1.0 | 6.0 | 0.03 | 0.03 | 0.03 | 86 | 1003.1 |
| 20260506141916 | 63 | 176 | 1.0 | 6.0 | 0.01 | 0.01 | 0.01 | 85 | 1003.1 |
| 20260506141417 | 63 | 219 | 1.0 | 8.0 | 0.01 | 0.01 | 0.01 | 85 | 1003.2 |
| 20260506140917 | 63 | 177 | 2.0 | 8.0 | 0.01 | 0.01 | 0.01 | 84 | 1003.3 |
| 20260506140417 | 64 | 229 | 2.0 | 7.0 | 0.01 | 0.01 | 0.01 | 83 | 1003.3 |
| 20260506135914 | 64 | 27 | 2.0 | 7.0 | 0.01 | 0.01 | 0.01 | 81 | 1003.4 |
| 20260506135644 | 65 | 225 | 1.0 | 7.0 | 0.00 | 0.00 | 0.00 | 80 | 1003.3 |
| 20260506134914 | 65 | 148 | 1.0 | 6.0 | 0.00 | 0.00 | 0.00 | 78 | 1003.4 |
| 20260506134414 | 65 | 261 | 1.0 | 10.0 | 0.00 | 0.00 | 0.00 | 78 | 1003.4 |
| 20260506133914 | 65 | 236 | 2.0 | 10.0 | 0.00 | 0.00 | 0.00 | 77 | 1003.4 |
| 20260506133414 | 65 | 236 | 1.0 | 6.0 | 0.00 | 0.00 | 0.00 | 77 | 1003.4 |
| 20260506132914 | 65 | 253 | 1.0 | 4.0 | 0.00 | 0.00 | 0.00 | 77 | 1003.4 |
| 20260506132639 | 65 | 249 | 1.0 | 6.0 | 0.00 | 0.00 | 0.00 | 77 | 1003.2 |
| 20260506131914 | 65 | 226 | 2.0 | 6.0 | 0.00 | 0.00 | 0.00 | 77 | 1003.2 |
| 20260506131409 | 65 | 224 | 2.0 | 8.0 | 0.00 | 0.00 | 0.00 | 76 | 1003.1 |
| 20260506131134 | 65 | 211 | 1.0 | 8.0 | 0.00 | 0.00 | 0.00 | 77 | 1003.1 |
| 20260506130408 | 65 | 234 | 1.0 | 4.0 | 0.00 | 0.00 | 0.00 | 77 | 1003.0 |
| 20260506125908 | 65 | 229 | 1.0 | 7.0 | 0.00 | 0.00 | 0.00 | 76 | 1003.0 |
| 20260506125408 | 65 | 217 | 1.0 | 7.0 | 0.00 | 0.00 | 0.00 | 76 | 1003.0 |
| 20260506124909 | 65 | 140 | 2.0 | 8.0 | 0.00 | 0.00 | 0.00 | 76 | 1002.9 |
| 20260506124409 | 65 | 209 | 1.0 | 8.0 | 0.00 | 0.00 | 0.00 | 76 | 1002.9 |
| 20260506124134 | 65 | 234 | 1.0 | 5.0 | 0.00 | 0.00 | 0.00 | 76 | 1002.9 |
| 20260506123408 | 65 | 117 | 1.0 | 5.0 | 0.00 | 0.00 | 0.00 | 76 | 1003.0 |
| 20260506122905 | 65 | 222 | 1.0 | 7.0 | 0.00 | 0.00 | 0.00 | 76 | 1003.1 |
| 20260506122404 | 66 | 127 | 1.0 | 7.0 | 0.00 | 0.00 | 0.00 | 75 | 1003.2 |
| 20260506121904 | 66 | 234 | 1.0 | 6.0 | 0.00 | 0.00 | 0.00 | 76 | 1003.2 |
| 20260506121404 | 66 | 152 | 1.0 | 5.0 | 0.00 | 0.00 | 0.00 | 76 | 1003.2 |
| 20260506120904 | 66 | 9 | 1.0 | 7.0 | 0.00 | 0.00 | 0.00 | 76 | 1003.3 |
| 20260506120631 | 66 | 214 | 1.0 | 8.0 | 0.00 | 0.00 | 0.00 | 76 | 1003.2 |
| 20260506115904 | 66 | 245 | 2.0 | 8.0 | 0.00 | 0.00 | 0.00 | 75 | 1003.2 |
| 20260506115402 | 66 | 224 | 2.0 | 8.0 | 0.00 | 0.00 | 0.00 | 75 | 1003.1 |
| 20260506114400 | 66 | 162 | 1.0 | 6.0 | 0.00 | 0.00 | 0.00 | 76 | 1003.0 |
| 20260506113900 | 66 | 222 | 1.0 | 10.0 | 0.00 | 0.00 | 0.00 | 76 | 1002.9 |
| 20260506113354 | 66 | 259 | 2.0 | 10.0 | 0.00 | 0.00 | 0.00 | 76 | 1002.9 |
| 20260506112849 | 66 | 299 | 2.0 | 8.0 | 0.00 | 0.00 | 0.00 | 77 | 1002.8 |
| 20260506112346 | 65 | 155 | 3.0 | 6.0 | 0.00 | 0.00 | 0.00 | 77 | 1002.9 |
| 20260506111846 | 65 | 231 | 2.0 | 8.0 | 0.00 | 0.00 | 0.00 | 78 | 1002.6 |
| 20260506111346 | 65 | 198 | 2.0 | 8.0 | 0.00 | 0.00 | 0.00 | 78 | 1002.7 |
| 20260506110845 | 65 | 223 | 2.0 | 8.0 | 0.00 | 0.00 | 0.00 | 78 | 1002.7 |
| 20260506110611 | 65 | 250 | 2.0 | 8.0 | 0.00 | 0.00 | 0.00 | 78 | 1002.7 |
| 20260506105841 | 65 | 116 | 2.0 | 8.0 | 0.00 | 0.00 | 0.00 | 79 | 1002.6 |
| 20260506105602 | 64 | 265 | 2.0 | 8.0 | 0.00 | 0.00 | 0.00 | 79 | 1002.7 |
| 20260506104838 | 64 | 122 | 2.0 | 6.0 | 0.00 | 0.00 | 0.00 | 79 | 1002.6 |
| 20260506104339 | 64 | 120 | 2.0 | 8.0 | 0.00 | 0.00 | 0.00 | 79 | 1002.5 |
| 20260506103836 | 64 | 277 | 2.0 | 8.0 | 0.00 | 0.00 | 0.00 | 79 | 1002.6 |
| 20260506103337 | 64 | 297 | 1.0 | 8.0 | 0.00 | 0.00 | 0.00 | 79 | 1002.5 |
| 20260506102836 | 64 | 205 | 1.0 | 8.0 | 0.00 | 0.00 | 0.00 | 80 | 1002.5 |
| 20260506102334 | 64 | 176 | 2.0 | 8.0 | 0.00 | 0.00 | 0.00 | 80 | 1002.5 |
| 20260506101835 | 64 | 276 | 1.0 | 8.0 | 0.00 | 0.00 | 0.00 | 80 | 1002.5 |
| 20260506101335 | 64 | 211 | 1.0 | 6.0 | 0.00 | 0.00 | 0.00 | 80 | 1002.5 |
| 20260506100834 | 64 | 181 | 1.0 | 6.0 | 0.00 | 0.00 | 0.00 | 80 | 1002.4 |
| 20260506100335 | 64 | 248 | 1.0 | 6.0 | 0.00 | 0.00 | 0.00 | 80 | 1002.5 |
| 20260506095834 | 64 | 236 | 1.0 | 5.0 | 0.00 | 0.00 | 0.00 | 80 | 1002.5 |
| 20260506095337 | 64 | 200 | 1.0 | 5.0 | 0.00 | 0.00 | 0.00 | 80 | 1002.5 |
| 20260506094834 | 64 | 214 | 1.0 | 8.0 | 0.00 | 0.00 | 0.00 | 79 | 1002.5 |
| 20260506094334 | 64 | 224 | 1.0 | 8.0 | 0.00 | 0.00 | 0.00 | 79 | 1002.6 |
| 20260506093834 | 64 | 226 | 1.0 | 6.0 | 0.00 | 0.00 | 0.00 | 79 | 1002.7 |
| 20260506093334 | 64 | 164 | 1.0 | 5.0 | 0.00 | 0.00 | 0.00 | 79 | 1002.7 |
| 20260506093059 | 64 | 143 | 1.0 | 5.0 | 0.00 | 0.00 | 0.00 | 79 | 1002.6 |
| 20260506092334 | 64 | 245 | 1.0 | 4.0 | 0.00 | 0.00 | 0.00 | 79 | 1002.6 |
| 20260506091832 | 64 | 274 | 1.0 | 6.0 | 0.00 | 0.00 | 0.00 | 78 | 1002.7 |
| 20260506091332 | 64 | 69 | 1.0 | 6.0 | 0.00 | 0.00 | 0.00 | 78 | 1002.7 |
| 20260506091057 | 65 | 196 | 1.0 | 4.0 | 0.00 | 0.00 | 0.00 | 78 | 1002.7 |
| 20260506090331 | 65 | 229 | 1.0 | 4.0 | 0.00 | 0.00 | 0.00 | 77 | 1002.5 |
| 20260506085832 | 65 | 226 | 1.0 | 9.0 | 0.00 | 0.00 | 0.00 | 77 | 1002.8 |
| 20260506085330 | 65 | 259 | 1.0 | 9.0 | 0.00 | 0.00 | 0.00 | 77 | 1002.8 |
| 20260506084831 | 65 | 230 | 1.0 | 6.0 | 0.00 | 0.00 | 0.00 | 76 | 1002.7 |
| 20260506084330 | 65 | 232 | 2.0 | 6.0 | 0.00 | 0.00 | 0.00 | 76 | 1002.7 |
| 20260506083825 | 65 | 129 | 2.0 | 10.0 | 0.00 | 0.00 | 0.00 | 76 | 1002.7 |
| 20260506083317 | 65 | 238 | 2.0 | 10.0 | 0.00 | 0.00 | 0.00 | 76 | 1002.8 |
| 20260506082812 | 65 | 202 | 1.0 | 8.0 | 0.00 | 0.00 | 0.00 | 76 | 1002.8 |
| 20260506082306 | 65 | 187 | 1.0 | 5.0 | 0.00 | 0.00 | 0.00 | 76 | 1002.8 |
| 20260506081759 | 66 | 313 | 1.0 | 5.0 | 0.00 | 0.00 | 0.00 | 76 | 1002.8 |